Time;durP1;ratioP1;P1;durP2;ratioP2;P2;SDS_P1;SDS_P2;PMS_P1;PMS_P2;Temp;Humidity;BMP_temperature;BMP_pressure;BME280_temperature;BME280_humidity;BME280_pressure;Samples;Min_cycle;Max_cycle;Signal;HPM_P1;HPM_P2
2021/01/18 00:00:28;;;;;;;13.3;9.25;;;;;;;0.79;67.55566;95604.39;;;;
2021/01/18 00:01:29;;;;;;;13.3;9.25;;;;;;;0.79;67.55566;95604.39;;;;
2021/01/18 00:02:31;;;;;;;13.3;9.25;;;;;;;0.79;67.55566;95604.39;;;;
2021/01/18 00:03:32;;;;;;;13.3;9.25;;;;;;;0.79;67.55566;95604.39;;;;
2021/01/18 00:04:32;;;;;;;13.3;9.25;;;;;;;0.79;67.55566;95604.39;;;;
2021/01/18 00:05:33;;;;;;;13.3;9.25;;;;;;;0.79;67.55566;95604.39;;;;
2021/01/18 00:06:34;;;;;;;13.3;9.25;;;;;;;0.79;67.55566;95604.39;;;;
2021/01/18 00:07:35;;;;;;;11.8;8.050001;;;;;;;0.88;67.83105;95602.96;;;;
2021/01/18 00:08:45;;;;;;;11.8;8.050001;;;;;;;0.88;67.83105;95602.96;;;;
2021/01/18 00:09:47;;;;;;;11.8;8.050001;;;;;;;0.88;67.83105;95602.96;;;;
2021/01/18 00:10:47;;;;;;;11.8;8.050001;;;;;;;0.88;67.83105;95602.96;;;;
2021/01/18 00:11:48;;;;;;;11.8;8.050001;;;;;;;0.88;67.83105;95602.96;;;;
2021/01/18 00:12:48;;;;;;;11.8;8.050001;;;;;;;0.88;67.83105;95602.96;;;;
2021/01/18 00:13:50;;;;;;;11.8;8.050001;;;;;;;0.88;67.83105;95602.96;;;;
2021/01/18 00:14:51;;;;;;;11.8;8.050001;;;;;;;0.88;67.83105;95602.96;;;;
2021/01/18 00:15:52;;;;;;;11.8;8.050001;;;;;;;0.88;67.83105;95602.96;;;;
2021/01/18 00:16:52;;;;;;;11.8;8.050001;;;;;;;0.88;67.83105;95602.96;;;;
2021/01/18 00:17:53;;;;;;;11.8;8.050001;;;;;;;0.88;67.83105;95602.96;;;;
2021/01/18 00:18:54;;;;;;;13.2;8.050001;;;;;;;0.93;68.08984;95610.76;;;;
2021/01/18 00:19:55;;;;;;;13.2;8.050001;;;;;;;0.93;68.08984;95610.76;;;;
2021/01/18 00:20:55;;;;;;;13.2;8.050001;;;;;;;0.93;68.08984;95610.76;;;;
2021/01/18 00:21:56;;;;;;;13.2;8.050001;;;;;;;0.93;68.08984;95610.76;;;;
2021/01/18 00:22:56;;;;;;;13.2;8.050001;;;;;;;0.93;68.08984;95610.76;;;;
2021/01/18 00:23:57;;;;;;;13.2;8.050001;;;;;;;0.93;68.08984;95610.76;;;;
2021/01/18 00:24:57;;;;;;;13.2;8.050001;;;;;;;0.93;68.08984;95610.76;;;;
2021/01/18 00:25:57;;;;;;;13.2;8.050001;;;;;;;0.93;68.08984;95610.76;;;;
2021/01/18 00:26:58;;;;;;;13.2;8.050001;;;;;;;0.93;68.08984;95610.76;;;;
2021/01/18 00:27:59;;;;;;;13.2;8.050001;;;;;;;0.93;68.08984;95610.76;;;;
2021/01/18 00:28:59;;;;;;;11.55;7.95;;;;;;;0.92;68.21582;95618.39;;;;
2021/01/18 00:29:59;;;;;;;11.55;7.95;;;;;;;0.92;68.21582;95618.39;;;;
2021/01/18 00:31:00;;;;;;;11.55;7.95;;;;;;;0.92;68.21582;95618.39;;;;
2021/01/18 00:32:02;;;;;;;11.55;7.95;;;;;;;0.92;68.21582;95618.39;;;;
2021/01/18 00:33:03;;;;;;;11.55;7.95;;;;;;;0.92;68.21582;95618.39;;;;
2021/01/18 00:34:04;;;;;;;11.55;7.95;;;;;;;0.92;68.21582;95618.39;;;;
2021/01/18 00:35:04;;;;;;;11.55;7.95;;;;;;;0.92;68.21582;95618.39;;;;
2021/01/18 00:36:07;;;;;;;11.55;7.95;;;;;;;0.92;68.21582;95618.39;;;;
2021/01/18 00:37:09;;;;;;;11.55;7.95;;;;;;;0.92;68.21582;95618.39;;;;
2021/01/18 00:38:09;;;;;;;11.55;7.95;;;;;;;0.92;68.21582;95618.39;;;;
2021/01/18 00:39:10;;;;;;;11.55;7.95;;;;;;;0.92;68.21582;95618.39;;;;
2021/01/18 00:40:10;;;;;;;11.3;7.75;;;;;;;0.91;68.34961;95613.65;;;;
2021/01/18 00:41:13;;;;;;;11.3;7.75;;;;;;;0.91;68.34961;95613.65;;;;
2021/01/18 00:42:14;;;;;;;11.3;7.75;;;;;;;0.91;68.34961;95613.65;;;;
2021/01/18 00:43:18;;;;;;;11.3;7.75;;;;;;;0.91;68.34961;95613.65;;;;
2021/01/18 00:44:19;;;;;;;11.3;7.75;;;;;;;0.91;68.34961;95613.65;;;;
2021/01/18 00:45:19;;;;;;;11.3;7.75;;;;;;;0.91;68.34961;95613.65;;;;
2021/01/18 00:46:22;;;;;;;11.3;7.75;;;;;;;0.91;68.34961;95613.65;;;;
2021/01/18 00:47:22;;;;;;;11.3;7.75;;;;;;;0.91;68.34961;95613.65;;;;
2021/01/18 00:48:23;;;;;;;11.3;7.75;;;;;;;0.91;68.34961;95613.65;;;;
2021/01/18 00:49:23;;;;;;;11.3;7.75;;;;;;;0.91;68.34961;95613.65;;;;
2021/01/18 00:50:24;;;;;;;10.25;7.4;;;;;;;0.92;68.94922;95621.47;;;;
2021/01/18 00:51:26;;;;;;;10.25;7.4;;;;;;;0.92;68.94922;95621.47;;;;
2021/01/18 00:52:35;;;;;;;10.25;7.4;;;;;;;0.92;68.94922;95621.47;;;;
2021/01/18 00:53:35;;;;;;;10.25;7.4;;;;;;;0.92;68.94922;95621.47;;;;
2021/01/18 00:54:36;;;;;;;10.25;7.4;;;;;;;0.92;68.94922;95621.47;;;;
2021/01/18 00:55:36;;;;;;;10.25;7.4;;;;;;;0.92;68.94922;95621.47;;;;
2021/01/18 00:56:37;;;;;;;10.25;7.4;;;;;;;0.92;68.94922;95621.47;;;;
2021/01/18 00:57:37;;;;;;;10.25;7.4;;;;;;;0.92;68.94922;95621.47;;;;
2021/01/18 00:58:38;;;;;;;10.25;7.4;;;;;;;0.92;68.94922;95621.47;;;;
2021/01/18 00:59:39;;;;;;;10.25;7.4;;;;;;;0.92;68.94922;95621.47;;;;
2021/01/18 01:00:39;;;;;;;10.25;7.4;;;;;;;0.92;68.94922;95621.47;;;;
2021/01/18 01:01:40;;;;;;;8.25;6.099999;;;;;;;1;69.43359;95625.03;;;;
2021/01/18 01:02:40;;;;;;;8.25;6.099999;;;;;;;1;69.43359;95625.03;;;;
2021/01/18 01:03:43;;;;;;;8.25;6.099999;;;;;;;1;69.43359;95625.03;;;;
2021/01/18 01:04:43;;;;;;;8.25;6.099999;;;;;;;1;69.43359;95625.03;;;;
2021/01/18 01:05:43;;;;;;;8.25;6.099999;;;;;;;1;69.43359;95625.03;;;;
2021/01/18 01:06:44;;;;;;;8.25;6.099999;;;;;;;1;69.43359;95625.03;;;;
2021/01/18 01:07:44;;;;;;;8.25;6.099999;;;;;;;1;69.43359;95625.03;;;;
2021/01/18 01:08:47;;;;;;;8.25;6.099999;;;;;;;1;69.43359;95625.03;;;;
2021/01/18 01:09:47;;;;;;;8.25;6.099999;;;;;;;1;69.43359;95625.03;;;;
2021/01/18 01:10:47;;;;;;;8.25;6.099999;;;;;;;1;69.43359;95625.03;;;;
2021/01/18 01:11:48;;;;;;;9.25;6.799999;;;;;;;1.05;69.49316;95642.63;;;;
2021/01/18 01:12:48;;;;;;;9.25;6.799999;;;;;;;1.05;69.49316;95642.63;;;;
2021/01/18 01:13:53;;;;;;;9.25;6.799999;;;;;;;1.05;69.49316;95642.63;;;;
2021/01/18 01:14:54;;;;;;;9.25;6.799999;;;;;;;1.05;69.49316;95642.63;;;;
2021/01/18 01:15:57;;;;;;;9.25;6.799999;;;;;;;1.05;69.49316;95642.63;;;;
2021/01/18 01:16:57;;;;;;;9.25;6.799999;;;;;;;1.05;69.49316;95642.63;;;;
2021/01/18 01:17:58;;;;;;;9.25;6.799999;;;;;;;1.05;69.49316;95642.63;;;;
2021/01/18 01:18:58;;;;;;;9.25;6.799999;;;;;;;1.05;69.49316;95642.63;;;;
2021/01/18 01:19:59;;;;;;;9.25;6.799999;;;;;;;1.05;69.49316;95642.63;;;;
2021/01/18 01:20:59;;;;;;;9.25;6.799999;;;;;;;1.05;69.49316;95642.63;;;;
2021/01/18 01:22:00;;;;;;;9.25;6.799999;;;;;;;1.05;69.49316;95642.63;;;;
2021/01/18 01:23:00;;;;;;;8.7;6.399999;;;;;;;1.08;70.21191;95638.29;;;;
2021/01/18 01:24:01;;;;;;;8.7;6.399999;;;;;;;1.08;70.21191;95638.29;;;;
2021/01/18 01:25:02;;;;;;;8.7;6.399999;;;;;;;1.08;70.21191;95638.29;;;;
2021/01/18 01:26:02;;;;;;;8.7;6.399999;;;;;;;1.08;70.21191;95638.29;;;;
2021/01/18 01:27:03;;;;;;;8.7;6.399999;;;;;;;1.08;70.21191;95638.29;;;;
2021/01/18 01:28:04;;;;;;;8.7;6.399999;;;;;;;1.08;70.21191;95638.29;;;;
2021/01/18 01:29:05;;;;;;;8.7;6.399999;;;;;;;1.08;70.21191;95638.29;;;;
2021/01/18 01:30:05;;;;;;;8.7;6.399999;;;;;;;1.08;70.21191;95638.29;;;;
2021/01/18 01:31:08;;;;;;;8.7;6.399999;;;;;;;1.08;70.21191;95638.29;;;;
2021/01/18 01:32:09;;;;;;;8.7;6.399999;;;;;;;1.08;70.21191;95638.29;;;;
2021/01/18 01:33:09;;;;;;;8.55;6.599999;;;;;;;1.04;70.16211;95653.33;;;;
2021/01/18 01:34:10;;;;;;;8.55;6.599999;;;;;;;1.04;70.16211;95653.33;;;;
2021/01/18 01:35:10;;;;;;;8.55;6.599999;;;;;;;1.04;70.16211;95653.33;;;;
2021/01/18 01:36:11;;;;;;;8.55;6.599999;;;;;;;1.04;70.16211;95653.33;;;;
2021/01/18 01:37:12;;;;;;;8.55;6.599999;;;;;;;1.04;70.16211;95653.33;;;;
2021/01/18 01:38:12;;;;;;;8.55;6.599999;;;;;;;1.04;70.16211;95653.33;;;;
2021/01/18 01:39:13;;;;;;;8.55;6.599999;;;;;;;1.04;70.16211;95653.33;;;;
2021/01/18 01:40:13;;;;;;;8.55;6.599999;;;;;;;1.04;70.16211;95653.33;;;;
2021/01/18 01:41:15;;;;;;;8.55;6.599999;;;;;;;1.04;70.16211;95653.33;;;;
2021/01/18 01:42:16;;;;;;;8.55;6.599999;;;;;;;1.04;70.16211;95653.33;;;;
2021/01/18 01:43:18;;;;;;;8.55;6.599999;;;;;;;1.04;70.16211;95653.33;;;;
2021/01/18 01:44:18;;;;;;;8.75;6.25;;;;;;;1.06;70.87988;95640.28;;;;
2021/01/18 01:45:19;;;;;;;8.75;6.25;;;;;;;1.06;70.87988;95640.28;;;;
2021/01/18 01:46:19;;;;;;;8.75;6.25;;;;;;;1.06;70.87988;95640.28;;;;
2021/01/18 01:47:20;;;;;;;8.75;6.25;;;;;;;1.06;70.87988;95640.28;;;;
2021/01/18 01:48:26;;;;;;;8.75;6.25;;;;;;;1.06;70.87988;95640.28;;;;
2021/01/18 01:49:26;;;;;;;8.75;6.25;;;;;;;1.06;70.87988;95640.28;;;;
2021/01/18 01:50:27;;;;;;;8.75;6.25;;;;;;;1.06;70.87988;95640.28;;;;
2021/01/18 01:51:31;;;;;;;8.75;6.25;;;;;;;1.06;70.87988;95640.28;;;;
2021/01/18 01:52:32;;;;;;;8.75;6.25;;;;;;;1.06;70.87988;95640.28;;;;
2021/01/18 01:53:36;;;;;;;8.75;6.25;;;;;;;1.06;70.87988;95640.28;;;;
2021/01/18 01:54:37;;;;;;;7.850001;5.949999;;;;;;;0.99;70.70996;95649.94;;;;
2021/01/18 01:55:38;;;;;;;7.850001;5.949999;;;;;;;0.99;70.70996;95649.94;;;;
2021/01/18 01:56:39;;;;;;;7.850001;5.949999;;;;;;;0.99;70.70996;95649.94;;;;
2021/01/18 01:57:40;;;;;;;7.850001;5.949999;;;;;;;0.99;70.70996;95649.94;;;;
2021/01/18 01:58:40;;;;;;;7.850001;5.949999;;;;;;;0.99;70.70996;95649.94;;;;
2021/01/18 01:59:42;;;;;;;7.850001;5.949999;;;;;;;0.99;70.70996;95649.94;;;;
2021/01/18 02:00:43;;;;;;;7.850001;5.949999;;;;;;;0.99;70.70996;95649.94;;;;
2021/01/18 02:01:43;;;;;;;7.850001;5.949999;;;;;;;0.99;70.70996;95649.94;;;;
2021/01/18 02:02:44;;;;;;;7.850001;5.949999;;;;;;;0.99;70.70996;95649.94;;;;
2021/01/18 02:03:45;;;;;;;7.850001;5.949999;;;;;;;0.99;70.70996;95649.94;;;;
2021/01/18 02:04:48;;;;;;;7.850001;5.949999;;;;;;;0.99;70.70996;95649.94;;;;
2021/01/18 02:05:50;;;;;;;9.099999;6.45;;;;;;;1.03;71.00098;95650.36;;;;
2021/01/18 02:06:51;;;;;;;9.099999;6.45;;;;;;;1.03;71.00098;95650.36;;;;
2021/01/18 02:07:51;;;;;;;9.099999;6.45;;;;;;;1.03;71.00098;95650.36;;;;
2021/01/18 02:08:58;;;;;;;9.099999;6.45;;;;;;;1.03;71.00098;95650.36;;;;
2021/01/18 02:09:59;;;;;;;9.099999;6.45;;;;;;;1.03;71.00098;95650.36;;;;
2021/01/18 02:10:59;;;;;;;9.099999;6.45;;;;;;;1.03;71.00098;95650.36;;;;
2021/01/18 02:12:00;;;;;;;9.099999;6.45;;;;;;;1.03;71.00098;95650.36;;;;
2021/01/18 02:13:01;;;;;;;9.099999;6.45;;;;;;;1.03;71.00098;95650.36;;;;
2021/01/18 02:14:08;;;;;;;9.099999;6.45;;;;;;;1.03;71.00098;95650.36;;;;
2021/01/18 02:15:37;;;;;;;9.099999;6.45;;;;;;;1.03;71.00098;95650.36;;;;
2021/01/18 02:16:46;;;;;;;10.2;7.05;;;;;;;1.08;71.55273;95642.28;;;;
2021/01/18 02:17:54;;;;;;;10.2;7.05;;;;;;;1.08;71.55273;95642.28;;;;
2021/01/18 02:19:11;;;;;;;10.2;7.05;;;;;;;1.08;71.55273;95642.28;;;;
2021/01/18 02:20:47;;;;;;;10.2;7.05;;;;;;;1.08;71.55273;95642.28;;;;
2021/01/18 02:26:12;;;;;;;10.2;7.05;;;;;;;1.08;71.55273;95642.28;;;;
2021/01/18 02:27:31;;;;;;;8.6;6.95;;;;;;;1.08;72.04492;95635.63;;;;
2021/01/18 02:33:05;;;;;;;8.6;6.95;;;;;;;1.08;72.04492;95635.63;;;;
2021/01/18 02:34:27;;;;;;;8.6;6.95;;;;;;;1.08;72.04492;95635.63;;;;
2021/01/18 02:36:55;;;;;;;8.6;6.95;;;;;;;1.08;72.04492;95635.63;;;;
2021/01/18 02:38:12;;;;;;;12.45;8.549999;;;;;;;1.03;72.27637;95637.13;;;;
2021/01/18 02:39:20;;;;;;;12.45;8.549999;;;;;;;1.03;72.27637;95637.13;;;;
2021/01/18 02:40:28;;;;;;;12.45;8.549999;;;;;;;1.03;72.27637;95637.13;;;;
2021/01/18 02:41:35;;;;;;;12.45;8.549999;;;;;;;1.03;72.27637;95637.13;;;;
2021/01/18 02:42:40;;;;;;;12.45;8.549999;;;;;;;1.03;72.27637;95637.13;;;;
2021/01/18 02:43:46;;;;;;;12.45;8.549999;;;;;;;1.03;72.27637;95637.13;;;;
2021/01/18 02:44:50;;;;;;;12.45;8.549999;;;;;;;1.03;72.27637;95637.13;;;;
2021/01/18 02:45:55;;;;;;;12.45;8.549999;;;;;;;1.03;72.27637;95637.13;;;;
2021/01/18 02:47:01;;;;;;;12.45;8.549999;;;;;;;1.03;72.27637;95637.13;;;;
2021/01/18 02:48:03;;;;;;;11.1;8.150002;;;;;;;0.95;72.28516;95639.34;;;;
2021/01/18 02:49:05;;;;;;;11.1;8.150002;;;;;;;0.95;72.28516;95639.34;;;;
2021/01/18 02:50:06;;;;;;;11.1;8.150002;;;;;;;0.95;72.28516;95639.34;;;;
2021/01/18 02:51:09;;;;;;;11.1;8.150002;;;;;;;0.95;72.28516;95639.34;;;;
2021/01/18 02:52:14;;;;;;;11.1;8.150002;;;;;;;0.95;72.28516;95639.34;;;;
2021/01/18 02:53:15;;;;;;;11.1;8.150002;;;;;;;0.95;72.28516;95639.34;;;;
2021/01/18 02:54:16;;;;;;;11.1;8.150002;;;;;;;0.95;72.28516;95639.34;;;;
2021/01/18 02:55:17;;;;;;;11.1;8.150002;;;;;;;0.95;72.28516;95639.34;;;;
2021/01/18 02:56:17;;;;;;;11.1;8.150002;;;;;;;0.95;72.28516;95639.34;;;;
2021/01/18 02:57:19;;;;;;;11.1;8.150002;;;;;;;0.95;72.28516;95639.34;;;;
2021/01/18 02:58:22;;;;;;;11.1;8.150002;;;;;;;0.95;72.28516;95639.34;;;;
2021/01/18 02:59:24;;;;;;;10.75;6.950001;;;;;;;0.93;72.89746;95639.15;;;;
2021/01/18 03:00:25;;;;;;;10.75;6.950001;;;;;;;0.93;72.89746;95639.15;;;;
2021/01/18 03:01:32;;;;;;;10.75;6.950001;;;;;;;0.93;72.89746;95639.15;;;;
2021/01/18 03:02:44;;;;;;;10.75;6.950001;;;;;;;0.93;72.89746;95639.15;;;;
2021/01/18 03:03:51;;;;;;;10.75;6.950001;;;;;;;0.93;72.89746;95639.15;;;;
2021/01/18 03:05:02;;;;;;;10.75;6.950001;;;;;;;0.93;72.89746;95639.15;;;;
2021/01/18 03:06:28;;;;;;;10.75;6.950001;;;;;;;0.93;72.89746;95639.15;;;;
2021/01/18 03:07:34;;;;;;;10.75;6.950001;;;;;;;0.93;72.89746;95639.15;;;;
2021/01/18 03:08:43;;;;;;;10.75;6.950001;;;;;;;0.93;72.89746;95639.15;;;;
2021/01/18 03:09:49;;;;;;;10.35;7.249999;;;;;;;1;73.52832;95664.48;;;;
2021/01/18 03:10:58;;;;;;;10.35;7.249999;;;;;;;1;73.52832;95664.48;;;;
2021/01/18 03:12:05;;;;;;;10.35;7.249999;;;;;;;1;73.52832;95664.48;;;;
2021/01/18 03:13:11;;;;;;;10.35;7.249999;;;;;;;1;73.52832;95664.48;;;;
2021/01/18 03:14:22;;;;;;;10.35;7.249999;;;;;;;1;73.52832;95664.48;;;;
2021/01/18 03:15:28;;;;;;;10.35;7.249999;;;;;;;1;73.52832;95664.48;;;;
2021/01/18 03:16:36;;;;;;;10.35;7.249999;;;;;;;1;73.52832;95664.48;;;;
2021/01/18 03:17:39;;;;;;;10.35;7.249999;;;;;;;1;73.52832;95664.48;;;;
2021/01/18 03:18:43;;;;;;;10.35;7.249999;;;;;;;1;73.52832;95664.48;;;;
2021/01/18 03:19:45;;;;;;;10.55;6.9;;;;;;;1.07;73.42383;95665.05;;;;
2021/01/18 03:20:47;;;;;;;10.55;6.9;;;;;;;1.07;73.42383;95665.05;;;;
2021/01/18 03:21:48;;;;;;;10.55;6.9;;;;;;;1.07;73.42383;95665.05;;;;
2021/01/18 03:22:49;;;;;;;10.55;6.9;;;;;;;1.07;73.42383;95665.05;;;;
2021/01/18 03:23:50;;;;;;;10.55;6.9;;;;;;;1.07;73.42383;95665.05;;;;
2021/01/18 03:24:50;;;;;;;10.55;6.9;;;;;;;1.07;73.42383;95665.05;;;;
2021/01/18 03:25:51;;;;;;;10.55;6.9;;;;;;;1.07;73.42383;95665.05;;;;
2021/01/18 03:26:54;;;;;;;10.55;6.9;;;;;;;1.07;73.42383;95665.05;;;;
2021/01/18 03:27:57;;;;;;;10.55;6.9;;;;;;;1.07;73.42383;95665.05;;;;
2021/01/18 03:28:57;;;;;;;10.55;6.9;;;;;;;1.07;73.42383;95665.05;;;;
2021/01/18 03:29:58;;;;;;;10.55;6.9;;;;;;;1.07;73.42383;95665.05;;;;
2021/01/18 03:30:58;;;;;;;10.9;6.75;;;;;;;1.13;73.59277;95664.81;;;;
2021/01/18 03:31:59;;;;;;;10.9;6.75;;;;;;;1.13;73.59277;95664.81;;;;
2021/01/18 03:32:59;;;;;;;10.9;6.75;;;;;;;1.13;73.59277;95664.81;;;;
2021/01/18 03:34:00;;;;;;;10.9;6.75;;;;;;;1.13;73.59277;95664.81;;;;
2021/01/18 03:35:00;;;;;;;10.9;6.75;;;;;;;1.13;73.59277;95664.81;;;;
2021/01/18 03:36:01;;;;;;;10.9;6.75;;;;;;;1.13;73.59277;95664.81;;;;
2021/01/18 03:37:02;;;;;;;10.9;6.75;;;;;;;1.13;73.59277;95664.81;;;;
2021/01/18 03:38:02;;;;;;;10.9;6.75;;;;;;;1.13;73.59277;95664.81;;;;
2021/01/18 03:39:04;;;;;;;10.9;6.75;;;;;;;1.13;73.59277;95664.81;;;;
2021/01/18 03:40:04;;;;;;;10.9;6.75;;;;;;;1.13;73.59277;95664.81;;;;
2021/01/18 03:41:07;;;;;;;9.949999;6.500001;;;;;;;1.17;73.92383;95662.11;;;;
2021/01/18 03:42:07;;;;;;;9.949999;6.500001;;;;;;;1.17;73.92383;95662.11;;;;
2021/01/18 03:43:11;;;;;;;9.949999;6.500001;;;;;;;1.17;73.92383;95662.11;;;;
2021/01/18 03:44:12;;;;;;;9.949999;6.500001;;;;;;;1.17;73.92383;95662.11;;;;
2021/01/18 03:45:12;;;;;;;9.949999;6.500001;;;;;;;1.17;73.92383;95662.11;;;;
2021/01/18 03:46:13;;;;;;;9.949999;6.500001;;;;;;;1.17;73.92383;95662.11;;;;
2021/01/18 03:47:14;;;;;;;9.949999;6.500001;;;;;;;1.17;73.92383;95662.11;;;;
2021/01/18 03:48:14;;;;;;;9.949999;6.500001;;;;;;;1.17;73.92383;95662.11;;;;
2021/01/18 03:49:16;;;;;;;9.949999;6.500001;;;;;;;1.17;73.92383;95662.11;;;;
2021/01/18 03:50:16;;;;;;;9.949999;6.500001;;;;;;;1.17;73.92383;95662.11;;;;
2021/01/18 03:51:17;;;;;;;9.949999;6.500001;;;;;;;1.17;73.92383;95662.11;;;;
2021/01/18 03:52:17;;;;;;;9.050001;5.900001;;;;;;;1.12;74.46875;95655.64;;;;
2021/01/18 03:53:18;;;;;;;9.050001;5.900001;;;;;;;1.12;74.46875;95655.64;;;;
2021/01/18 03:54:19;;;;;;;9.050001;5.900001;;;;;;;1.12;74.46875;95655.64;;;;
2021/01/18 03:55:19;;;;;;;9.050001;5.900001;;;;;;;1.12;74.46875;95655.64;;;;
2021/01/18 03:56:21;;;;;;;9.050001;5.900001;;;;;;;1.12;74.46875;95655.64;;;;
2021/01/18 03:57:21;;;;;;;9.050001;5.900001;;;;;;;1.12;74.46875;95655.64;;;;
2021/01/18 03:58:22;;;;;;;9.050001;5.900001;;;;;;;1.12;74.46875;95655.64;;;;
2021/01/18 03:59:22;;;;;;;9.050001;5.900001;;;;;;;1.12;74.46875;95655.64;;;;
2021/01/18 04:00:23;;;;;;;9.050001;5.900001;;;;;;;1.12;74.46875;95655.64;;;;
2021/01/18 04:01:26;;;;;;;9.050001;5.900001;;;;;;;1.12;74.46875;95655.64;;;;
2021/01/18 04:02:26;;;;;;;8.549999;5.65;;;;;;;1.02;75.13184;95661.58;;;;
2021/01/18 04:03:28;;;;;;;8.549999;5.65;;;;;;;1.02;75.13184;95661.58;;;;
2021/01/18 04:04:28;;;;;;;8.549999;5.65;;;;;;;1.02;75.13184;95661.58;;;;
2021/01/18 04:05:29;;;;;;;8.549999;5.65;;;;;;;1.02;75.13184;95661.58;;;;
2021/01/18 04:06:29;;;;;;;8.549999;5.65;;;;;;;1.02;75.13184;95661.58;;;;
2021/01/18 04:07:35;;;;;;;8.549999;5.65;;;;;;;1.02;75.13184;95661.58;;;;
2021/01/18 04:08:35;;;;;;;8.549999;5.65;;;;;;;1.02;75.13184;95661.58;;;;
2021/01/18 04:09:36;;;;;;;8.549999;5.65;;;;;;;1.02;75.13184;95661.58;;;;
2021/01/18 04:10:36;;;;;;;8.549999;5.65;;;;;;;1.02;75.13184;95661.58;;;;
2021/01/18 04:11:37;;;;;;;8.549999;5.65;;;;;;;1.02;75.13184;95661.58;;;;
2021/01/18 04:12:37;;;;;;;8.549999;5.65;;;;;;;1.02;75.13184;95661.58;;;;
2021/01/18 04:13:39;;;;;;;9.699999;5.299999;;;;;;;1.08;76.12695;95663.55;;;;
2021/01/18 04:14:39;;;;;;;9.699999;5.299999;;;;;;;1.08;76.12695;95663.55;;;;
2021/01/18 04:15:40;;;;;;;9.699999;5.299999;;;;;;;1.08;76.12695;95663.55;;;;
2021/01/18 04:16:40;;;;;;;9.699999;5.299999;;;;;;;1.08;76.12695;95663.55;;;;
2021/01/18 04:17:41;;;;;;;9.699999;5.299999;;;;;;;1.08;76.12695;95663.55;;;;
2021/01/18 04:18:43;;;;;;;9.699999;5.299999;;;;;;;1.08;76.12695;95663.55;;;;
2021/01/18 04:19:44;;;;;;;9.699999;5.299999;;;;;;;1.08;76.12695;95663.55;;;;
2021/01/18 04:20:44;;;;;;;9.699999;5.299999;;;;;;;1.08;76.12695;95663.55;;;;
2021/01/18 04:21:44;;;;;;;9.699999;5.299999;;;;;;;1.08;76.12695;95663.55;;;;
2021/01/18 04:22:45;;;;;;;9.699999;5.299999;;;;;;;1.08;76.12695;95663.55;;;;
2021/01/18 04:23:49;;;;;;;10.2;5.799999;;;;;;;1.16;76.04492;95678.24;;;;
2021/01/18 04:24:49;;;;;;;10.2;5.799999;;;;;;;1.16;76.04492;95678.24;;;;
2021/01/18 04:25:50;;;;;;;10.2;5.799999;;;;;;;1.16;76.04492;95678.24;;;;
2021/01/18 04:26:50;;;;;;;10.2;5.799999;;;;;;;1.16;76.04492;95678.24;;;;
2021/01/18 04:27:51;;;;;;;10.2;5.799999;;;;;;;1.16;76.04492;95678.24;;;;
2021/01/18 04:28:53;;;;;;;10.2;5.799999;;;;;;;1.16;76.04492;95678.24;;;;
2021/01/18 04:29:53;;;;;;;10.2;5.799999;;;;;;;1.16;76.04492;95678.24;;;;
2021/01/18 04:30:54;;;;;;;10.2;5.799999;;;;;;;1.16;76.04492;95678.24;;;;
2021/01/18 04:31:54;;;;;;;10.2;5.799999;;;;;;;1.16;76.04492;95678.24;;;;
2021/01/18 04:32:55;;;;;;;10.2;5.799999;;;;;;;1.16;76.04492;95678.24;;;;
2021/01/18 04:33:57;;;;;;;10.2;5.799999;;;;;;;1.16;76.04492;95678.24;;;;
2021/01/18 04:34:57;;;;;;;10.15;5.75;;;;;;;1.18;75.96582;95677.09;;;;
2021/01/18 04:35:58;;;;;;;10.15;5.75;;;;;;;1.18;75.96582;95677.09;;;;
2021/01/18 04:36:58;;;;;;;10.15;5.75;;;;;;;1.18;75.96582;95677.09;;;;
2021/01/18 04:38:00;;;;;;;10.15;5.75;;;;;;;1.18;75.96582;95677.09;;;;
2021/01/18 04:39:01;;;;;;;10.15;5.75;;;;;;;1.18;75.96582;95677.09;;;;
2021/01/18 04:40:02;;;;;;;10.15;5.75;;;;;;;1.18;75.96582;95677.09;;;;
2021/01/18 04:41:05;;;;;;;10.15;5.75;;;;;;;1.18;75.96582;95677.09;;;;
2021/01/18 04:42:08;;;;;;;10.15;5.75;;;;;;;1.18;75.96582;95677.09;;;;
2021/01/18 04:43:10;;;;;;;10.15;5.75;;;;;;;1.18;75.96582;95677.09;;;;
2021/01/18 04:44:13;;;;;;;10.15;5.75;;;;;;;1.18;75.96582;95677.09;;;;
2021/01/18 04:45:15;;;;;;;10.3;5.899999;;;;;;;1.12;75.97559;95676;;;;
2021/01/18 04:46:18;;;;;;;10.3;5.899999;;;;;;;1.12;75.97559;95676;;;;
2021/01/18 04:47:20;;;;;;;10.3;5.899999;;;;;;;1.12;75.97559;95676;;;;
2021/01/18 04:48:23;;;;;;;10.3;5.899999;;;;;;;1.12;75.97559;95676;;;;
2021/01/18 04:49:24;;;;;;;10.3;5.899999;;;;;;;1.12;75.97559;95676;;;;
2021/01/18 04:50:25;;;;;;;10.3;5.899999;;;;;;;1.12;75.97559;95676;;;;
2021/01/18 04:51:27;;;;;;;10.3;5.899999;;;;;;;1.12;75.97559;95676;;;;
2021/01/18 04:52:39;;;;;;;10.3;5.899999;;;;;;;1.12;75.97559;95676;;;;
2021/01/18 04:53:49;;;;;;;10.3;5.899999;;;;;;;1.12;75.97559;95676;;;;
2021/01/18 04:54:51;;;;;;;10.3;5.899999;;;;;;;1.12;75.97559;95676;;;;
2021/01/18 04:55:54;;;;;;;10.25;6.200001;;;;;;;1.15;75.8877;95685.8;;;;
2021/01/18 04:57:10;;;;;;;10.25;6.200001;;;;;;;1.15;75.8877;95685.8;;;;
2021/01/18 04:58:12;;;;;;;10.25;6.200001;;;;;;;1.15;75.8877;95685.8;;;;
2021/01/18 04:59:15;;;;;;;10.25;6.200001;;;;;;;1.15;75.8877;95685.8;;;;
2021/01/18 05:00:20;;;;;;;10.25;6.200001;;;;;;;1.15;75.8877;95685.8;;;;
2021/01/18 05:01:33;;;;;;;10.25;6.200001;;;;;;;1.15;75.8877;95685.8;;;;
2021/01/18 05:02:41;;;;;;;10.25;6.200001;;;;;;;1.15;75.8877;95685.8;;;;
2021/01/18 05:03:46;;;;;;;10.25;6.200001;;;;;;;1.15;75.8877;95685.8;;;;
2021/01/18 05:05:02;;;;;;;10.25;6.200001;;;;;;;1.15;75.8877;95685.8;;;;
2021/01/18 05:06:13;;;;;;;10.25;6.200001;;;;;;;1.15;75.8877;95685.8;;;;
2021/01/18 05:07:46;;;;;;;8.9;6;;;;;;;1.18;75.86133;95690.8;;;;
2021/01/18 05:09:05;;;;;;;8.9;6;;;;;;;1.18;75.86133;95690.8;;;;
2021/01/18 05:10:24;;;;;;;8.9;6;;;;;;;1.18;75.86133;95690.8;;;;
2021/01/18 05:11:27;;;;;;;8.9;6;;;;;;;1.18;75.86133;95690.8;;;;
2021/01/18 05:12:27;;;;;;;8.9;6;;;;;;;1.18;75.86133;95690.8;;;;
2021/01/18 05:13:29;;;;;;;8.9;6;;;;;;;1.18;75.86133;95690.8;;;;
2021/01/18 05:14:30;;;;;;;8.9;6;;;;;;;1.18;75.86133;95690.8;;;;
2021/01/18 05:15:33;;;;;;;8.9;6;;;;;;;1.18;75.86133;95690.8;;;;
2021/01/18 05:16:37;;;;;;;8.9;6;;;;;;;1.18;75.86133;95690.8;;;;
2021/01/18 05:17:43;;;;;;;11.05;5.9;;;;;;;1.12;76.12207;95701.26;;;;
2021/01/18 05:18:45;;;;;;;11.05;5.9;;;;;;;1.12;76.12207;95701.26;;;;
2021/01/18 05:19:48;;;;;;;11.05;5.9;;;;;;;1.12;76.12207;95701.26;;;;
2021/01/18 05:20:50;;;;;;;11.05;5.9;;;;;;;1.12;76.12207;95701.26;;;;
2021/01/18 05:21:53;;;;;;;11.05;5.9;;;;;;;1.12;76.12207;95701.26;;;;
2021/01/18 05:22:56;;;;;;;11.05;5.9;;;;;;;1.12;76.12207;95701.26;;;;
2021/01/18 05:23:56;;;;;;;11.05;5.9;;;;;;;1.12;76.12207;95701.26;;;;
2021/01/18 05:24:57;;;;;;;11.05;5.9;;;;;;;1.12;76.12207;95701.26;;;;
2021/01/18 05:25:57;;;;;;;11.05;5.9;;;;;;;1.12;76.12207;95701.26;;;;
2021/01/18 05:27:15;;;;;;;11.05;5.9;;;;;;;1.12;76.12207;95701.26;;;;
2021/01/18 05:28:15;;;;;;;10.35;5.700001;;;;;;;1.05;76.36133;95706.43;;;;
2021/01/18 05:29:16;;;;;;;10.35;5.700001;;;;;;;1.05;76.36133;95706.43;;;;
2021/01/18 05:30:28;;;;;;;10.35;5.700001;;;;;;;1.05;76.36133;95706.43;;;;
2021/01/18 05:31:30;;;;;;;10.35;5.700001;;;;;;;1.05;76.36133;95706.43;;;;
2021/01/18 05:32:33;;;;;;;10.35;5.700001;;;;;;;1.05;76.36133;95706.43;;;;
2021/01/18 05:33:33;;;;;;;10.35;5.700001;;;;;;;1.05;76.36133;95706.43;;;;
2021/01/18 05:34:37;;;;;;;10.35;5.700001;;;;;;;1.05;76.36133;95706.43;;;;
2021/01/18 05:35:38;;;;;;;10.35;5.700001;;;;;;;1.05;76.36133;95706.43;;;;
2021/01/18 05:36:40;;;;;;;10.35;5.700001;;;;;;;1.05;76.36133;95706.43;;;;
2021/01/18 05:37:43;;;;;;;10.35;5.700001;;;;;;;1.05;76.36133;95706.43;;;;
2021/01/18 05:39:02;;;;;;;10.55;6.749999;;;;;;;1.03;76.74414;95700.03;;;;
2021/01/18 05:40:09;;;;;;;10.55;6.749999;;;;;;;1.03;76.74414;95700.03;;;;
2021/01/18 05:41:19;;;;;;;10.55;6.749999;;;;;;;1.03;76.74414;95700.03;;;;
2021/01/18 05:42:28;;;;;;;10.55;6.749999;;;;;;;1.03;76.74414;95700.03;;;;
2021/01/18 05:43:29;;;;;;;10.55;6.749999;;;;;;;1.03;76.74414;95700.03;;;;
2021/01/18 05:44:34;;;;;;;10.55;6.749999;;;;;;;1.03;76.74414;95700.03;;;;
2021/01/18 05:45:36;;;;;;;10.55;6.749999;;;;;;;1.03;76.74414;95700.03;;;;
2021/01/18 05:46:38;;;;;;;10.55;6.749999;;;;;;;1.03;76.74414;95700.03;;;;
2021/01/18 05:47:40;;;;;;;10.55;6.749999;;;;;;;1.03;76.74414;95700.03;;;;
2021/01/18 05:48:41;;;;;;;10.55;6.749999;;;;;;;1.03;76.74414;95700.03;;;;
2021/01/18 05:49:42;;;;;;;9.799999;6.500001;;;;;;;1;76.78125;95720.31;;;;
2021/01/18 05:50:45;;;;;;;9.799999;6.500001;;;;;;;1;76.78125;95720.31;;;;
2021/01/18 05:51:54;;;;;;;9.799999;6.500001;;;;;;;1;76.78125;95720.31;;;;
2021/01/18 05:52:55;;;;;;;9.799999;6.500001;;;;;;;1;76.78125;95720.31;;;;
2021/01/18 05:53:56;;;;;;;9.799999;6.500001;;;;;;;1;76.78125;95720.31;;;;
2021/01/18 05:55:00;;;;;;;9.799999;6.500001;;;;;;;1;76.78125;95720.31;;;;
2021/01/18 05:56:18;;;;;;;9.799999;6.500001;;;;;;;1;76.78125;95720.31;;;;